Terminal Aerodrome Forecast
Issued by NWS

Home | Current Version | Previous Version | Text Only | Print | Product List | Glossary On
Versions: 1 2 3 4 5 6 7 8 9 10 11 12 13 14 15 16 17 18 19 20
000
FTUS43 KAPX 290520
TAFMBL
TAF
KMBL 290520Z 2906/3006 00000KT 1SM BR SKC
      TEMPO 2906/2908 5SM BR
     FM290800 00000KT 1/2SM FG VV002
     FM291300 VRB03KT P6SM FEW250
     FM291800 24006KT P6SM FEW250
     FM292100 27006KT P6SM FEW250
     FM300500 19004KT P6SM SCT120=

USA.gov is the U.S. government's official web portal to all federal, state and local government web resources and services.